Time;durP1;ratioP1;P1;durP2;ratioP2;P2;SDS_P1;SDS_P2;PMS_P1;PMS_P2;Temp;Humidity;BMP_temperature;BMP_pressure;BME280_temperature;BME280_humidity;BME280_pressure;Samples;Min_cycle;Max_cycle;Signal;HPM_P1;HPM_P2
2022/05/26 00:02:48;;;;;;;11.90;8.73;;;;;;;;;;8332948;28;20068;-85
2022/05/26 00:06:52;;;;;;;13.40;8.13;;;;;;;;;;8333412;28;20053;-85
2022/05/26 00:10:55;;;;;;;13.30;8.32;;;;;;;;;;8332492;28;20053;-85
2022/05/26 00:14:59;;;;;;;12.80;8.23;;;;;;;;;;8331294;28;20049;-85
2022/05/26 00:19:01;;;;;;;13.57;8.63;;;;;;;;;;8330979;28;20374;-86
2022/05/26 00:23:04;;;;;;;13.73;8.95;;;;;;;;;;8329954;28;20034;-86
2022/05/26 00:27:07;;;;;;;15.07;7.95;;;;;;;;;;8331079;28;20041;-86
2022/05/26 00:31:11;;;;;;;12.77;7.57;;;;;;;;;;8331178;28;20416;-85
2022/05/26 00:35:15;;;;;;;11.10;7.50;;;;;;;;;;8328080;28;20116;-85
2022/05/26 00:39:20;;;;;;;10.70;7.35;;;;;;;;;;8328754;28;20049;-87
2022/05/26 00:43:23;;;;;;;11.85;7.65;;;;;;;;;;8326192;28;20045;-85
2022/05/26 00:47:30;;;;;;;13.90;8.25;;;;;;;;;;8325886;28;20041;-93
2022/05/26 00:51:37;;;;;;;12.45;7.95;;;;;;;;;;8323509;28;20054;-85
2022/05/26 00:55:46;;;;;;;13.95;8.32;;;;;;;;;;8325282;28;20128;-85
2022/05/26 00:59:57;;;;;;;13.50;8.45;;;;;;;;;;8321158;28;20053;-87
2022/05/26 01:04:07;;;;;;;13.68;8.82;;;;;;;;;;8321637;28;20049;-86
2022/05/26 01:08:18;;;;;;;12.32;8.13;;;;;;;;;;8322905;28;20041;-86
2022/05/26 01:12:20;;;;;;;14.05;7.90;;;;;;;;;;8325854;28;20500;-85
2022/05/26 01:16:30;;;;;;;13.00;8.55;;;;;;;;;;8327050;28;20054;-86
2022/05/26 01:20:51;;;;;;;13.02;8.40;;;;;;;;;;8329141;28;20125;-86
2022/05/26 01:25:22;;;;;;;13.52;8.43;;;;;;;;;;8330476;28;20575;-85
2022/05/26 01:29:56;;;;;;;12.18;8.23;;;;;;;;;;8330634;28;20073;-86
2022/05/26 01:34:10;;;;;;;13.88;8.30;;;;;;;;;;8330340;28;20046;-86
2022/05/26 01:38:21;;;;;;;23.00;8.10;;;;;;;;;;8330135;28;20041;-86
2022/05/26 01:42:31;;;;;;;14.55;8.18;;;;;;;;;;8330026;28;20049;-86
2022/05/26 01:46:39;;;;;;;15.02;8.30;;;;;;;;;;8330188;28;20095;-87
2022/05/26 01:50:49;;;;;;;17.55;11.48;;;;;;;;;;8323597;28;20052;-86
2022/05/26 01:55:04;;;;;;;13.70;9.82;;;;;;;;;;8330025;28;20099;-86
2022/05/26 01:59:11;;;;;;;13.80;9.05;;;;;;;;;;8330025;28;20077;-86
2022/05/26 02:03:15;;;;;;;13.48;8.63;;;;;;;;;;8330032;28;20521;-86
2022/05/26 02:07:25;;;;;;;15.82;10.38;;;;;;;;;;8329807;28;20120;-86
2022/05/26 02:11:28;;;;;;;14.73;9.55;;;;;;;;;;8329827;28;20045;-86
2022/05/26 02:15:36;;;;;;;19.58;11.55;;;;;;;;;;8329651;28;20088;-86
2022/05/26 02:19:41;;;;;;;22.08;12.77;;;;;;;;;;8333132;28;20128;-86
2022/05/26 02:23:51;;;;;;;33.20;21.67;;;;;;;;;;8335910;28;20049;-85
2022/05/26 02:27:56;;;;;;;30.67;19.48;;;;;;;;;;8335812;28;20596;-87
2022/05/26 02:31:59;;;;;;;45.90;27.38;;;;;;;;;;8335775;28;20096;-86
2022/05/26 02:36:01;;;;;;;42.67;27.92;;;;;;;;;;8335357;28;20514;-86
2022/05/26 02:40:08;;;;;;;33.25;22.17;;;;;;;;;;8335555;28;20045;-86
2022/05/26 02:44:11;;;;;;;37.95;25.75;;;;;;;;;;8329655;28;20077;-86
2022/05/26 02:48:28;;;;;;;29.13;20.20;;;;;;;;;;8335228;28;20464;-86
2022/05/26 02:52:36;;;;;;;25.60;18.48;;;;;;;;;;8330129;28;20073;-87
2022/05/26 02:56:51;;;;;;;22.10;15.10;;;;;;;;;;8334921;28;20049;-87
2022/05/26 03:00:59;;;;;;;30.95;19.63;;;;;;;;;;8334719;28;20045;-87
2022/05/26 03:05:06;;;;;;;24.52;16.98;;;;;;;;;;8334663;28;20486;-87
2022/05/26 03:09:10;;;;;;;28.17;16.80;;;;;;;;;;8334569;28;20057;-87
2022/05/26 03:13:14;;;;;;;29.52;17.65;;;;;;;;;;8334280;28;20129;-87
2022/05/26 03:17:17;;;;;;;44.08;23.80;;;;;;;;;;8334168;28;20049;-88
2022/05/26 03:21:20;;;;;;;81.43;38.70;;;;;;;;;;8334137;28;20068;-88
2022/05/26 03:25:23;;;;;;;43.72;23.05;;;;;;;;;;8333910;28;20045;-87
2022/05/26 03:29:27;;;;;;;45.70;23.63;;;;;;;;;;8333204;28;20045;-88
2022/05/26 03:40:46;;;;;;;36.90;19.75;;;;;;;;;;8333743;28;20139;-88
2022/05/26 03:42:16;;;;;;;29.98;17.90;;;;;;;;;;8333408;28;20041;-87
2022/05/26 03:46:21;;;;;;;25.85;14.23;;;;;;;;;;8333461;28;20056;-88
2022/05/26 03:50:24;;;;;;;32.67;17.80;;;;;;;;;;8333184;28;20041;-87
2022/05/26 03:54:27;;;;;;;36.47;17.90;;;;;;;;;;8332897;28;20171;-87
2022/05/26 03:58:30;;;;;;;29.92;16.65;;;;;;;;;;8333070;28;20124;-87
2022/05/26 04:02:36;;;;;;;27.08;14.82;;;;;;;;;;8333420;28;20480;-88
2022/05/26 04:06:38;;;;;;;46.08;23.30;;;;;;;;;;8333091;28;20045;-86
2022/05/26 04:10:41;;;;;;;34.35;18.63;;;;;;;;;;8333153;28;20406;-88
2022/05/26 04:14:44;;;;;;;30.42;17.88;;;;;;;;;;8333197;28;20477;-91
2022/05/26 04:18:48;;;;;;;27.02;16.02;;;;;;;;;;8332634;28;20386;-87
2022/05/26 04:22:51;;;;;;;25.38;15.63;;;;;;;;;;8332113;28;20045;-89
2022/05/26 04:26:54;;;;;;;28.95;15.73;;;;;;;;;;8332058;28;20128;-87
2022/05/26 04:30:57;;;;;;;23.92;13.80;;;;;;;;;;8331905;28;20053;-87
2022/05/26 04:35:02;;;;;;;25.60;13.70;;;;;;;;;;8325610;28;20045;-86
2022/05/26 04:39:05;;;;;;;35.92;20.63;;;;;;;;;;8325361;28;20053;-88
2022/05/26 04:43:08;;;;;;;21.75;13.10;;;;;;;;;;8329263;28;20045;-87
2022/05/26 04:47:11;;;;;;;24.27;14.75;;;;;;;;;;8330112;28;20049;-87
2022/05/26 04:51:17;;;;;;;29.02;16.67;;;;;;;;;;8330678;28;20140;-86
2022/05/26 04:55:20;;;;;;;22.20;14.52;;;;;;;;;;8330766;28;20045;-87
2022/05/26 04:59:23;;;;;;;19.52;11.60;;;;;;;;;;8325745;28;20049;-87
2022/05/26 05:03:26;;;;;;;18.95;12.77;;;;;;;;;;8330574;28;20099;-86
2022/05/26 05:07:31;;;;;;;17.17;11.10;;;;;;;;;;8326111;28;20049;-86
2022/05/26 05:11:34;;;;;;;14.05;9.48;;;;;;;;;;8331142;28;20129;-85
2022/05/26 05:15:43;;;;;;;18.33;10.15;;;;;;;;;;8331016;28;20600;-85
2022/05/26 05:19:46;;;;;;;16.35;9.18;;;;;;;;;;8331862;28;20049;-85
2022/05/26 05:23:55;;;;;;;13.70;8.00;;;;;;;;;;8330878;28;20048;-85
2022/05/26 05:28:04;;;;;;;15.93;9.55;;;;;;;;;;8330815;28;20091;-84
2022/05/26 05:32:14;;;;;;;12.55;8.20;;;;;;;;;;8331663;28;20076;-85
2022/05/26 05:36:22;;;;;;;12.90;8.73;;;;;;;;;;8330875;28;20045;-93
2022/05/26 05:40:27;;;;;;;15.40;9.65;;;;;;;;;;8331302;28;20050;-84
2022/05/26 05:44:30;;;;;;;12.30;8.40;;;;;;;;;;8331740;28;20073;-85
2022/05/26 05:48:33;;;;;;;13.27;7.75;;;;;;;;;;8331308;28;20053;-85
2022/05/26 05:52:37;;;;;;;12.13;7.22;;;;;;;;;;8330890;28;20513;-85
2022/05/26 05:56:42;;;;;;;10.05;6.90;;;;;;;;;;8337455;28;20049;-85
2022/05/26 06:00:45;;;;;;;11.10;6.90;;;;;;;;;;8334834;28;20053;-85
2022/05/26 06:04:48;;;;;;;9.90;6.72;;;;;;;;;;8333111;28;20041;-88
2022/05/26 06:08:52;;;;;;;9.82;6.20;;;;;;;;;;8337556;28;20128;-85
2022/05/26 06:12:57;;;;;;;10.73;6.18;;;;;;;;;;8339403;28;20109;-89
2022/05/26 06:17:00;;;;;;;7.93;5.38;;;;;;;;;;8336677;28;20059;-85
2022/05/26 06:21:05;;;;;;;8.07;5.10;;;;;;;;;;8334809;28;20050;-87
2022/05/26 06:25:10;;;;;;;9.48;4.70;;;;;;;;;;8334447;28;20532;-86
2022/05/26 06:37:54;;;;;;;7.13;4.07;;;;;;;;;;8327749;28;20046;-85
2022/05/26 06:42:10;;;;;;;6.82;3.80;;;;;;;;;;8329135;28;20052;-86
2022/05/26 06:46:15;;;;;;;5.07;3.50;;;;;;;;;;8333058;28;20478;-88
2022/05/26 06:50:18;;;;;;;5.88;3.80;;;;;;;;;;8334053;28;20050;-86
2022/05/26 06:54:21;;;;;;;12.27;4.03;;;;;;;;;;8334674;28;20227;-86
2022/05/26 06:58:25;;;;;;;6.45;3.97;;;;;;;;;;8334819;28;20401;-86
2022/05/26 07:02:30;;;;;;;6.13;3.70;;;;;;;;;;8335394;28;20045;-87
2022/05/26 07:06:33;;;;;;;6.03;3.90;;;;;;;;;;8333633;28;20095;-87
2022/05/26 07:10:37;;;;;;;7.25;4.00;;;;;;;;;;8334421;28;20508;-87
2022/05/26 07:14:40;;;;;;;6.40;3.80;;;;;;;;;;8334238;28;20501;-86
2022/05/26 07:18:45;;;;;;;6.78;3.83;;;;;;;;;;8334343;28;20046;-88
2022/05/26 07:22:48;;;;;;;7.03;3.78;;;;;;;;;;8334160;28;20486;-87
2022/05/26 07:26:52;;;;;;;8.75;3.85;;;;;;;;;;8334001;28;20045;-87
2022/05/26 07:30:55;;;;;;;7.55;3.35;;;;;;;;;;8333995;28;20122;-86
2022/05/26 07:35:00;;;;;;;5.63;3.00;;;;;;;;;;8333938;28;20136;-89
2022/05/26 07:43:24;;;;;;;6.53;3.53;;;;;;;;;;8333769;28;20053;-88
2022/05/26 07:47:27;;;;;;;6.32;3.10;;;;;;;;;;8333391;28;20096;-86
2022/05/26 07:51:32;;;;;;;4.75;3.15;;;;;;;;;;8333540;28;20057;-86
2022/05/26 07:55:38;;;;;;;5.38;3.45;;;;;;;;;;8333047;28;20573;-87
2022/05/26 07:59:42;;;;;;;4.78;3.20;;;;;;;;;;8334128;28;20046;-87
2022/05/26 08:03:45;;;;;;;7.95;3.03;;;;;;;;;;8333363;28;20180;-87
2022/05/26 08:07:50;;;;;;;6.43;2.92;;;;;;;;;;8332971;28;20075;-87
2022/05/26 08:11:54;;;;;;;5.53;2.92;;;;;;;;;;8332880;28;20049;-86
2022/05/26 08:15:58;;;;;;;4.90;3.35;;;;;;;;;;8332606;28;20049;-86
2022/05/26 08:20:01;;;;;;;6.38;3.67;;;;;;;;;;8327484;28;20049;-86
2022/05/26 08:24:07;;;;;;;4.43;3.20;;;;;;;;;;8326007;28;20042;-92
2022/05/26 08:28:10;;;;;;;5.53;3.22;;;;;;;;;;8333766;28;20087;-88
2022/05/26 08:32:15;;;;;;;8.02;3.40;;;;;;;;;;8332489;28;20099;-88
2022/05/26 08:36:23;;;;;;;5.63;3.13;;;;;;;;;;8332279;28;20132;-87
2022/05/26 08:40:35;;;;;;;5.95;2.80;;;;;;;;;;8332818;28;20045;-86
2022/05/26 08:44:40;;;;;;;5.03;2.70;;;;;;;;;;8332044;28;20042;-86
2022/05/26 08:48:51;;;;;;;7.15;3.00;;;;;;;;;;8325967;28;20049;-87
2022/05/26 08:52:59;;;;;;;6.10;2.90;;;;;;;;;;8331934;28;20551;-86
2022/05/26 08:57:05;;;;;;;8.23;2.50;;;;;;;;;;8331089;28;20049;-84
2022/05/26 09:01:12;;;;;;;4.25;2.65;;;;;;;;;;8331377;28;20145;-86
2022/05/26 09:05:20;;;;;;;4.30;2.10;;;;;;;;;;8331671;28;20045;-87
2022/05/26 09:13:46;;;;;;;3.15;2.00;;;;;;;;;;8331097;28;20041;-82
2022/05/26 09:17:49;;;;;;;3.80;2.05;;;;;;;;;;8330746;28;20486;-85
2022/05/26 09:21:54;;;;;;;3.28;2.20;;;;;;;;;;8330702;28;20049;-86
2022/05/26 09:26:05;;;;;;;4.80;2.10;;;;;;;;;;8330864;28;20049;-85
2022/05/26 09:30:20;;;;;;;2.92;2.05;;;;;;;;;;8329992;28;20512;-86
2022/05/26 09:34:25;;;;;;;3.38;1.70;;;;;;;;;;8330967;28;20045;-85
2022/05/26 09:38:33;;;;;;;3.47;1.60;;;;;;;;;;8330425;28;20141;-87
2022/05/26 09:42:43;;;;;;;2.30;1.50;;;;;;;;;;8330438;28;20508;-85
2022/05/26 09:46:51;;;;;;;2.20;1.60;;;;;;;;;;8330474;28;20482;-84
2022/05/26 09:51:07;;;;;;;5.50;1.60;;;;;;;;;;8330063;28;20077;-85
2022/05/26 09:55:19;;;;;;;3.35;1.50;;;;;;;;;;8330309;28;20500;-85
2022/05/26 09:59:28;;;;;;;4.43;1.40;;;;;;;;;;8321956;28;20046;-93
2022/05/26 10:03:52;;;;;;;4.65;1.45;;;;;;;;;;8326771;28;20049;-86
2022/05/26 10:08:05;;;;;;;4.32;1.45;;;;;;;;;;8327543;28;20481;-84
2022/05/26 10:12:19;;;;;;;1.65;1.20;;;;;;;;;;8311436;28;20423;-89
2022/05/26 10:16:34;;;;;;;2.92;1.52;;;;;;;;;;8316859;28;20046;-85
2022/05/26 10:20:51;;;;;;;3.38;1.20;;;;;;;;;;8329029;28;20041;-85
2022/05/26 10:25:16;;;;;;;4.32;1.70;;;;;;;;;;8323211;28;20531;-84
2022/05/26 10:29:33;;;;;;;1.65;1.38;;;;;;;;;;8325852;28;20052;-84
2022/05/26 10:33:48;;;;;;;1.23;1.13;;;;;;;;;;8329706;28;20370;-85
2022/05/26 10:38:11;;;;;;;1.17;1.08;;;;;;;;;;8326300;28;20060;-89
2022/05/26 10:42:23;;;;;;;7.40;1.27;;;;;;;;;;8329988;28;20123;-85
2022/05/26 10:46:29;;;;;;;1.38;1.10;;;;;;;;;;8332523;28;20508;-86
2022/05/26 10:50:39;;;;;;;9.40;1.42;;;;;;;;;;8334683;28;20049;-87
2022/05/26 10:54:53;;;;;;;2.30;1.20;;;;;;;;;;8335535;28;20049;-86
2022/05/26 10:59:03;;;;;;;2.30;1.05;;;;;;;;;;8335709;28;20049;-93
2022/05/26 11:03:13;;;;;;;3.80;1.15;;;;;;;;;;8335325;28;20045;-89
2022/05/26 11:07:21;;;;;;;2.03;1.10;;;;;;;;;;8330892;28;20119;-88
2022/05/26 11:11:35;;;;;;;4.05;1.45;;;;;;;;;;8335479;28;20049;-85
2022/05/26 11:20:09;;;;;;;8.32;1.20;;;;;;;;;;8329024;28;20050;-84
2022/05/26 11:24:12;;;;;;;5.10;1.40;;;;;;;;;;8335880;28;20098;-88
2022/05/26 11:28:27;;;;;;;1.73;1.33;;;;;;;;;;8335047;28;20041;-92
2022/05/26 11:36:55;;;;;;;6.10;1.80;;;;;;;;;;8335153;28;20409;-85
2022/05/26 11:41:05;;;;;;;3.33;1.10;;;;;;;;;;8333252;28;20401;-82
2022/05/26 11:45:22;;;;;;;0.98;0.95;;;;;;;;;;8333370;28;20056;-81
2022/05/26 11:50:07;;;;;;;3.40;1.90;;;;;;;;;;8326290;28;20091;-87
2022/05/26 11:54:11;;;;;;;2.33;1.42;;;;;;;;;;8330823;28;20049;-86
2022/05/26 11:58:29;;;;;;;7.43;3.17;;;;;;;;;;8331861;28;20067;-84
2022/05/26 12:02:34;;;;;;;3.63;1.30;;;;;;;;;;8298783;28;20103;-85
2022/05/26 12:06:45;;;;;;;2.88;1.20;;;;;;;;;;8319803;28;20045;-85
2022/05/26 12:10:57;;;;;;;2.17;1.38;;;;;;;;;;8325972;28;20072;-86
2022/05/26 12:15:07;;;;;;;3.83;1.25;;;;;;;;;;8325226;28;20397;-85
2022/05/26 12:19:12;;;;;;;4.15;1.67;;;;;;;;;;8299145;28;20042;-84
2022/05/26 12:23:29;;;;;;;3.97;1.55;;;;;;;;;;8300087;28;20057;-89
2022/05/26 12:28:14;;;;;;;2.10;1.00;;;;;;;;;;8335422;28;20049;-88
2022/05/26 12:32:23;;;;;;;1.92;1.20;;;;;;;;;;8333023;28;20135;-86
2022/05/26 12:36:41;;;;;;;4.57;1.45;;;;;;;;;;8328759;28;20049;-85
2022/05/26 12:41:01;;;;;;;2.85;1.60;;;;;;;;;;8326754;28;20041;-84
2022/05/26 12:45:28;;;;;;;2.13;1.63;;;;;;;;;;8327138;28;20080;-85
2022/05/26 12:50:02;;;;;;;4.22;1.60;;;;;;;;;;8324770;28;20095;-85
2022/05/26 12:54:11;;;;;;;2.58;1.40;;;;;;;;;;8314315;28;20152;-83
2022/05/26 12:58:18;;;;;;;2.42;1.48;;;;;;;;;;8327775;28;20084;-84
2022/05/26 13:02:30;;;;;;;3.63;1.40;;;;;;;;;;8327435;28;20049;-85
2022/05/26 13:06:37;;;;;;;1.92;1.20;;;;;;;;;;8325634;28;20780;-85
2022/05/26 13:10:45;;;;;;;1.77;1.30;;;;;;;;;;8298320;28;20110;-85
2022/05/26 13:14:51;;;;;;;2.10;1.27;;;;;;;;;;8294012;28;20060;-84
2022/05/26 13:18:55;;;;;;;2.70;1.45;;;;;;;;;;8293675;28;20057;-83
2022/05/26 13:23:00;;;;;;;3.17;1.60;;;;;;;;;;8310385;28;20045;-84
2022/05/26 13:27:11;;;;;;;1.30;1.13;;;;;;;;;;8320310;28;20099;-83
2022/05/26 13:35:41;;;;;;;2.67;1.20;;;;;;;;;;8327236;28;20099;-93
2022/05/26 13:39:45;;;;;;;1.35;1.10;;;;;;;;;;8336262;28;20037;-90
2022/05/26 13:43:50;;;;;;;1.00;0.95;;;;;;;;;;8335581;28;20049;-92
2022/05/26 13:48:27;;;;;;;1.67;1.13;;;;;;;;;;8336652;28;20053;-84
2022/05/26 13:52:34;;;;;;;2.13;1.17;;;;;;;;;;8337151;28;20061;-90
2022/05/26 13:56:37;;;;;;;3.22;1.20;;;;;;;;;;8330360;28;20056;-85
2022/05/26 14:00:43;;;;;;;4.72;1.48;;;;;;;;;;8329346;28;20452;-91
2022/05/26 14:05:00;;;;;;;1.77;1.30;;;;;;;;;;8329352;28;20046;-93
2022/05/26 14:09:18;;;;;;;3.25;1.20;;;;;;;;;;8336627;28;20057;-87
2022/05/26 14:13:35;;;;;;;2.13;1.00;;;;;;;;;;8336520;28;20478;-85
2022/05/26 14:17:43;;;;;;;3.60;1.23;;;;;;;;;;8343408;28;20045;-91
2022/05/26 14:21:50;;;;;;;4.25;1.30;;;;;;;;;;8341791;28;20052;-85
2022/05/26 14:25:59;;;;;;;2.55;1.20;;;;;;;;;;8338555;28;20049;-84
2022/05/26 14:30:24;;;;;;;1.58;1.40;;;;;;;;;;8337086;28;20052;-85
2022/05/26 14:34:33;;;;;;;1.83;1.15;;;;;;;;;;8332815;28;20046;-87
2022/05/26 14:38:36;;;;;;;2.35;1.20;;;;;;;;;;8338703;28;20501;-88
2022/05/26 14:42:41;;;;;;;2.80;1.10;;;;;;;;;;8337078;28;20160;-85
2022/05/26 14:46:48;;;;;;;3.22;1.40;;;;;;;;;;8334092;28;20037;-89
2022/05/26 14:50:54;;;;;;;2.67;1.10;;;;;;;;;;8325289;28;20053;-89
2022/05/26 14:59:23;;;;;;;6.10;2.30;;;;;;;;;;8334884;28;20041;-94
2022/05/26 15:03:28;;;;;;;2.38;1.10;;;;;;;;;;8330253;28;20065;-86
2022/05/26 15:07:36;;;;;;;1.63;1.10;;;;;;;;;;8330533;28;20064;-83
2022/05/26 15:11:41;;;;;;;1.85;1.20;;;;;;;;;;8332213;28;20136;-83
2022/05/26 15:15:45;;;;;;;2.50;1.15;;;;;;;;;;8330857;28;20052;-90
2022/05/26 15:19:52;;;;;;;3.15;1.30;;;;;;;;;;8331146;28;20490;-84
2022/05/26 15:23:57;;;;;;;2.90;1.10;;;;;;;;;;8330914;28;20072;-92
2022/05/26 15:28:01;;;;;;;5.82;2.33;;;;;;;;;;8336245;28;20456;-91
2022/05/26 15:32:07;;;;;;;2.60;1.50;;;;;;;;;;8338024;28;20073;-91
2022/05/26 15:36:12;;;;;;;2.67;1.20;;;;;;;;;;8337088;28;20469;-90
2022/05/26 15:40:21;;;;;;;4.28;1.55;;;;;;;;;;8339604;28;20050;-93
2022/05/26 15:44:24;;;;;;;6.15;1.70;;;;;;;;;;8334882;28;20056;-85
2022/05/26 15:48:27;;;;;;;3.85;2.20;;;;;;;;;;8335622;28;20160;-87
2022/05/26 15:52:32;;;;;;;2.78;1.58;;;;;;;;;;8333647;28;20057;-91
2022/05/26 15:56:40;;;;;;;3.90;1.63;;;;;;;;;;8333563;28;20045;-92
2022/05/26 16:00:43;;;;;;;1.70;1.38;;;;;;;;;;8332279;28;20140;-91
2022/05/26 16:04:46;;;;;;;5.95;2.00;;;;;;;;;;8329297;28;20041;-93
2022/05/26 16:08:49;;;;;;;4.75;1.90;;;;;;;;;;8329074;28;20127;-85
2022/05/26 16:12:55;;;;;;;3.83;1.60;;;;;;;;;;8319972;28;20052;-84
2022/05/26 16:16:58;;;;;;;2.33;1.20;;;;;;;;;;8326544;28;20049;-83
2022/05/26 16:21:02;;;;;;;2.55;1.38;;;;;;;;;;8327349;28;20073;-84
2022/05/26 16:25:09;;;;;;;3.50;1.48;;;;;;;;;;8327412;28;20060;-84
2022/05/26 16:29:18;;;;;;;4.70;2.15;;;;;;;;;;8328842;28;20164;-84
2022/05/26 16:33:29;;;;;;;5.45;1.70;;;;;;;;;;8326955;28;20088;-87
2022/05/26 16:37:41;;;;;;;7.50;1.90;;;;;;;;;;8321666;28;20045;-85
2022/05/26 16:41:46;;;;;;;4.65;1.83;;;;;;;;;;8326341;28;20047;-84
2022/05/26 16:45:51;;;;;;;4.07;1.52;;;;;;;;;;8325716;28;20045;-85
2022/05/26 16:49:54;;;;;;;4.80;1.63;;;;;;;;;;8325132;28;20085;-85
2022/05/26 16:53:57;;;;;;;4.53;1.42;;;;;;;;;;8323462;28;20069;-85
2022/05/26 16:58:01;;;;;;;2.97;1.40;;;;;;;;;;8319019;28;20064;-84
2022/05/26 17:02:08;;;;;;;2.90;1.60;;;;;;;;;;8326017;28;20144;-85
2022/05/26 17:06:11;;;;;;;3.47;1.63;;;;;;;;;;8326102;28;20045;-86
2022/05/26 17:10:17;;;;;;;5.63;2.00;;;;;;;;;;8326591;28;20132;-84
2022/05/26 17:23:04;;;;;;;2.92;1.80;;;;;;;;;;8324609;28;20052;-86
2022/05/26 17:27:16;;;;;;;4.70;1.92;;;;;;;;;;8326011;28;20054;-86
2022/05/26 17:31:21;;;;;;;4.93;1.75;;;;;;;;;;8325335;28;20080;-93
2022/05/26 17:35:26;;;;;;;3.53;1.88;;;;;;;;;;8322572;28;20049;-86
2022/05/26 17:39:31;;;;;;;5.60;2.13;;;;;;;;;;8313941;28;20545;-86
2022/05/26 17:43:34;;;;;;;3.92;2.03;;;;;;;;;;8325866;28;20049;-86
2022/05/26 17:47:38;;;;;;;3.28;1.80;;;;;;;;;;8325518;28;20045;-86
2022/05/26 17:51:47;;;;;;;3.28;1.75;;;;;;;;;;8330522;28;20123;-91
2022/05/26 17:55:50;;;;;;;5.20;2.00;;;;;;;;;;8332247;28;20500;-85
2022/05/26 18:04:18;;;;;;;3.93;2.20;;;;;;;;;;8339176;28;20049;-86
2022/05/26 18:08:24;;;;;;;2.60;1.73;;;;;;;;;;8335591;28;20304;-95
2022/05/26 18:12:27;;;;;;;3.08;2.17;;;;;;;;;;8335514;28;20041;-92
2022/05/26 18:16:35;;;;;;;5.90;2.67;;;;;;;;;;8337308;28;20041;-87
2022/05/26 18:20:41;;;;;;;2.17;1.98;;;;;;;;;;8335421;28;20048;-91
2022/05/26 18:24:52;;;;;;;7.88;2.22;;;;;;;;;;8336629;28;20083;-92
2022/05/26 18:28:56;;;;;;;4.70;2.45;;;;;;;;;;8326413;28;20049;-85
2022/05/26 18:33:00;;;;;;;5.25;2.92;;;;;;;;;;8326408;28;20088;-86
2022/05/26 18:37:12;;;;;;;6.82;2.63;;;;;;;;;;8327098;28;20048;-91
2022/05/26 18:41:24;;;;;;;5.40;3.03;;;;;;;;;;8327634;28;20107;-85
2022/05/26 18:45:32;;;;;;;5.65;3.00;;;;;;;;;;8327167;28;20477;-88
2022/05/26 18:49:45;;;;;;;7.85;3.20;;;;;;;;;;8323923;28;20140;-94
2022/05/26 18:53:49;;;;;;;8.73;4.80;;;;;;;;;;8322054;28;20061;-85
2022/05/26 18:58:01;;;;;;;15.77;7.57;;;;;;;;;;8316856;28;20050;-85
2022/05/26 19:02:07;;;;;;;19.83;9.27;;;;;;;;;;8319999;28;20088;-86
2022/05/26 19:06:14;;;;;;;8.13;3.95;;;;;;;;;;8325333;28;20049;-86
2022/05/26 19:10:20;;;;;;;16.98;9.27;;;;;;;;;;8328892;28;20049;-86
2022/05/26 19:14:33;;;;;;;7.10;3.80;;;;;;;;;;8334384;28;20045;-85
2022/05/26 19:18:37;;;;;;;8.30;4.30;;;;;;;;;;8332417;28;20073;-85
2022/05/26 19:22:41;;;;;;;8.75;4.30;;;;;;;;;;8334164;28;20045;-86
2022/05/26 19:26:47;;;;;;;8.73;4.40;;;;;;;;;;8331970;28;20048;-86
2022/05/26 19:30:54;;;;;;;9.05;4.60;;;;;;;;;;8332239;28;20052;-86
2022/05/26 19:34:57;;;;;;;9.20;3.65;;;;;;;;;;8334078;28;20041;-86
2022/05/26 19:39:01;;;;;;;8.73;3.40;;;;;;;;;;8331971;28;20489;-86
2022/05/26 19:43:06;;;;;;;8.75;3.97;;;;;;;;;;8324325;28;20111;-87
2022/05/26 19:47:22;;;;;;;9.32;4.78;;;;;;;;;;8334012;28;20052;-90
2022/05/26 19:51:27;;;;;;;4.60;2.70;;;;;;;;;;8334405;28;20057;-86
2022/05/26 19:55:35;;;;;;;8.25;3.03;;;;;;;;;;8331373;28;20087;-87
2022/05/26 19:59:54;;;;;;;6.28;3.10;;;;;;;;;;8325596;28;20038;-88
2022/05/26 20:04:12;;;;;;;6.10;3.35;;;;;;;;;;8329529;28;20042;-86
2022/05/26 20:08:16;;;;;;;8.43;2.60;;;;;;;;;;8328002;28;20453;-87
2022/05/26 20:12:42;;;;;;;5.75;2.53;;;;;;;;;;8327000;28;20478;-89
2022/05/26 20:16:46;;;;;;;4.07;2.47;;;;;;;;;;8324216;28;20090;-84
2022/05/26 20:20:59;;;;;;;6.15;2.30;;;;;;;;;;8326193;28;20045;-85
2022/05/26 20:25:02;;;;;;;4.68;2.63;;;;;;;;;;8328248;28;20034;-84
2022/05/26 20:33:27;;;;;;;5.63;2.60;;;;;;;;;;8328807;28;20049;-85
2022/05/26 20:37:32;;;;;;;4.70;2.80;;;;;;;;;;8326435;28;20072;-85
2022/05/26 20:41:35;;;;;;;3.95;2.50;;;;;;;;;;8324420;28;20049;-89
2022/05/26 20:45:44;;;;;;;6.70;2.33;;;;;;;;;;8328384;28;20133;-87
2022/05/26 20:49:51;;;;;;;3.58;2.40;;;;;;;;;;8327762;28;20096;-86
2022/05/26 20:53:56;;;;;;;3.45;2.08;;;;;;;;;;8323406;28;20057;-85
2022/05/26 20:58:00;;;;;;;4.88;2.03;;;;;;;;;;8325684;28;20508;-94
2022/05/26 21:02:03;;;;;;;2.92;2.20;;;;;;;;;;8326340;28;20525;-85
2022/05/26 21:06:12;;;;;;;4.30;2.05;;;;;;;;;;8331150;28;20045;-86
2022/05/26 21:10:17;;;;;;;3.75;2.20;;;;;;;;;;8328162;28;20038;-86
2022/05/26 21:14:20;;;;;;;6.40;2.30;;;;;;;;;;8329134;28;20477;-85
2022/05/26 21:18:26;;;;;;;3.70;2.33;;;;;;;;;;8330463;28;20049;-85
2022/05/26 21:22:31;;;;;;;6.30;2.97;;;;;;;;;;8331300;28;20103;-92
2022/05/26 21:26:37;;;;;;;4.47;2.42;;;;;;;;;;8329441;28;20045;-84
2022/05/26 21:30:40;;;;;;;5.00;2.47;;;;;;;;;;8330430;28;20044;-85
2022/05/26 21:34:43;;;;;;;4.82;2.28;;;;;;;;;;8329295;28;20048;-85
2022/05/26 21:38:47;;;;;;;4.60;2.05;;;;;;;;;;8330480;28;20099;-85
2022/05/26 21:42:52;;;;;;;2.33;1.80;;;;;;;;;;8333687;28;20045;-86
2022/05/26 21:46:54;;;;;;;4.88;2.00;;;;;;;;;;8328274;28;20479;-86
2022/05/26 21:51:00;;;;;;;4.25;2.20;;;;;;;;;;8331749;28;20053;-86
2022/05/26 21:55:03;;;;;;;2.03;1.77;;;;;;;;;;8328327;28;20140;-85
2022/05/26 21:59:09;;;;;;;4.55;2.20;;;;;;;;;;8330675;28;20057;-85
2022/05/26 22:03:11;;;;;;;2.75;2.15;;;;;;;;;;8317223;28;20061;-86
2022/05/26 22:11:36;;;;;;;2.83;2.05;;;;;;;;;;8325907;28;20386;-85
2022/05/26 22:15:42;;;;;;;3.83;2.45;;;;;;;;;;8326189;28;20038;-94
2022/05/26 22:19:45;;;;;;;4.22;2.20;;;;;;;;;;8325718;28;20065;-94
2022/05/26 22:23:49;;;;;;;3.45;2.20;;;;;;;;;;8326765;28;20084;-86
2022/05/26 22:27:53;;;;;;;5.13;2.13;;;;;;;;;;8348963;28;20050;-96
2022/05/26 22:32:00;;;;;;;3.33;2.30;;;;;;;;;;8329113;28;20045;-91
2022/05/26 22:36:02;;;;;;;5.18;2.30;;;;;;;;;;8338768;28;20099;-85
2022/05/26 22:40:07;;;;;;;3.72;2.13;;;;;;;;;;8327933;28;20124;-85
2022/05/26 22:44:14;;;;;;;2.97;2.33;;;;;;;;;;8333555;28;20041;-84
2022/05/26 22:48:20;;;;;;;4.43;2.28;;;;;;;;;;8333977;28;20167;-86
2022/05/26 22:52:23;;;;;;;6.13;2.33;;;;;;;;;;8333147;28;20115;-84
2022/05/26 22:56:33;;;;;;;4.03;2.10;;;;;;;;;;8325161;28;20050;-84
2022/05/26 23:00:36;;;;;;;3.28;2.40;;;;;;;;;;8331726;28;20121;-84
2022/05/26 23:04:42;;;;;;;3.72;2.10;;;;;;;;;;8327433;28;20060;-86
2022/05/26 23:08:44;;;;;;;3.75;2.10;;;;;;;;;;8333436;28;20049;-83
2022/05/26 23:12:50;;;;;;;3.17;2.10;;;;;;;;;;8329960;28;20048;-83
2022/05/26 23:16:53;;;;;;;3.10;1.95;;;;;;;;;;8324650;28;20072;-82
2022/05/26 23:20:57;;;;;;;2.95;2.13;;;;;;;;;;8326910;28;20175;-84
2022/05/26 23:25:00;;;;;;;4.07;2.55;;;;;;;;;;8331858;28;20049;-85
2022/05/26 23:29:03;;;;;;;2.83;2.10;;;;;;;;;;8331868;28;20064;-89
2022/05/26 23:33:07;;;;;;;3.42;2.30;;;;;;;;;;8329028;28;20045;-85
2022/05/26 23:37:11;;;;;;;5.22;2.20;;;;;;;;;;8333509;28;20064;-85
2022/05/26 23:45:34;;;;;;;8.35;2.60;;;;;;;;;;8329968;28;20049;-86
2022/05/26 23:49:37;;;;;;;4.85;2.58;;;;;;;;;;8325626;28;20120;-87
2022/05/26 23:53:42;;;;;;;3.63;2.20;;;;;;;;;;8329476;28;20149;-84
2022/05/26 23:57:51;;;;;;;4.30;2.30;;;;;;;;;;8332007;28;20045;-96
